createdAt,value
2018-09-14T00:01:10.157Z,7.07
2018-09-14T00:04:34.813Z,7.40
2018-09-14T00:07:59.516Z,7.50
2018-09-14T00:11:24.178Z,7.80
2018-09-14T00:14:48.883Z,6.93
2018-09-14T00:18:13.579Z,7.10
2018-09-14T00:21:38.270Z,7.83
2018-09-14T00:25:02.908Z,7.80
2018-09-14T00:28:28.585Z,6.60
2018-09-14T00:31:53.257Z,7.10
2018-09-14T00:35:18.033Z,7.17
2018-09-14T00:38:42.711Z,8.10
2018-09-14T00:42:07.471Z,8.33
2018-09-14T00:45:32.173Z,8.87
2018-09-14T00:48:57.915Z,7.37
2018-09-14T00:52:22.544Z,8.03
2018-09-14T00:55:47.302Z,9.07
2018-09-14T00:59:12.030Z,8.97
2018-09-14T01:02:36.814Z,7.30
2018-09-14T01:06:01.460Z,9.93
2018-09-14T01:09:28.223Z,10.03
2018-09-14T01:12:52.869Z,9.43
2018-09-14T01:16:17.539Z,9.00
2018-09-14T01:19:42.163Z,9.70
2018-09-14T01:23:06.863Z,9.93
2018-09-14T01:26:31.600Z,8.77
2018-09-14T01:29:56.899Z,11.20
2018-09-14T01:33:22.167Z,11.97
2018-09-14T01:36:46.856Z,13.27
2018-09-14T01:40:11.517Z,12.07
2018-09-14T01:43:36.183Z,11.43
2018-09-14T01:47:00.821Z,12.47
2018-09-14T01:50:25.549Z,13.00
2018-09-14T01:53:50.247Z,12.50
2018-09-14T01:57:14.983Z,10.57
2018-09-14T02:00:39.647Z,11.50
2018-09-14T02:04:04.365Z,8.33
2018-09-14T02:07:29.030Z,9.77
2018-09-14T02:10:53.786Z,9.67
2018-09-14T02:14:18.479Z,11.07
2018-09-14T02:17:43.224Z,10.40
2018-09-14T02:21:07.879Z,9.63
2018-09-14T02:24:32.621Z,9.33
2018-09-14T02:27:58.060Z,9.13
2018-09-14T02:31:22.859Z,11.30
2018-09-14T02:34:47.523Z,10.73
2018-09-14T02:38:12.239Z,9.80
2018-09-14T02:41:37.145Z,10.70
2018-09-14T02:45:01.891Z,10.17
2018-09-14T02:48:26.635Z,8.67
2018-09-14T02:51:51.339Z,10.63
2018-09-14T02:55:16.199Z,10.27
2018-09-14T02:58:40.939Z,10.23
2018-09-14T03:02:05.237Z,9.73
2018-09-14T03:05:29.909Z,9.60
2018-09-14T03:08:54.583Z,10.50
2018-09-14T03:12:19.270Z,7.87
2018-09-14T03:15:43.947Z,9.40
2018-09-14T03:19:08.618Z,7.93
2018-09-14T03:22:33.347Z,9.80
2018-09-14T03:25:58.038Z,9.03
2018-09-14T03:29:22.826Z,7.53
2018-09-14T03:32:47.527Z,10.50
2018-09-14T03:36:12.170Z,6.83
2018-09-14T03:39:36.887Z,9.53
2018-09-14T03:43:01.582Z,6.30
2018-09-14T03:46:26.273Z,8.60
2018-09-14T03:49:51.059Z,9.23
2018-09-14T03:53:15.717Z,9.50
2018-09-14T03:56:40.501Z,9.27
2018-09-14T04:00:05.293Z,6.80
2018-09-14T04:03:29.983Z,8.20
2018-09-14T04:06:54.714Z,7.90
2018-09-14T04:10:19.398Z,8.80
2018-09-14T04:13:44.050Z,8.83
2018-09-14T04:17:08.740Z,7.80
2018-09-14T04:20:33.480Z,9.07
2018-09-14T04:23:58.323Z,9.17
2018-09-14T04:27:23.010Z,10.03
2018-09-14T04:30:47.864Z,7.37
2018-09-14T04:34:12.521Z,9.83
2018-09-14T04:37:37.181Z,8.90
2018-09-14T04:41:01.889Z,8.80
2018-09-14T04:44:26.576Z,9.80
2018-09-14T04:47:51.249Z,8.20
2018-09-14T04:51:16.018Z,9.00
2018-09-14T04:54:40.647Z,9.40
2018-09-14T04:58:05.605Z,9.60
2018-09-14T05:01:30.330Z,10.00
2018-09-14T05:04:55.191Z,9.43
2018-09-14T05:08:20.184Z,7.97
2018-09-14T05:11:45.187Z,11.57
2018-09-14T05:15:09.928Z,8.87
2018-09-14T05:18:34.649Z,9.07
2018-09-14T05:21:59.393Z,12.10
2018-09-14T05:25:24.116Z,13.23
2018-09-14T05:28:48.880Z,11.07
2018-09-14T05:32:13.587Z,13.47
2018-09-14T05:37:02.734Z,12.60
2018-09-14T05:40:27.410Z,12.80
2018-09-14T05:43:52.057Z,13.20
2018-09-14T05:47:16.788Z,13.70
2018-09-14T05:50:41.454Z,12.93
2018-09-14T05:54:06.160Z,12.70
2018-09-14T05:57:30.897Z,14.40
2018-09-14T06:00:55.699Z,13.73
2018-09-14T06:04:20.370Z,13.70
2018-09-14T06:07:45.042Z,14.53
2018-09-14T06:11:09.814Z,15.07
2018-09-14T06:14:34.793Z,15.43
2018-09-14T06:17:59.442Z,13.33
2018-09-14T06:21:24.086Z,14.33
2018-09-14T06:24:48.791Z,16.23
2018-09-14T06:28:13.534Z,13.53
2018-09-14T06:31:38.341Z,15.40
2018-09-14T06:35:03.036Z,14.07
2018-09-14T06:38:27.681Z,15.50
2018-09-14T06:41:52.435Z,14.40
2018-09-14T06:45:17.188Z,15.87
2018-09-14T06:48:41.896Z,15.03
2018-09-14T06:52:06.796Z,12.67
2018-09-14T06:55:31.495Z,13.00
2018-09-14T06:58:56.167Z,12.73
2018-09-14T07:02:22.996Z,14.00
2018-09-14T07:05:47.718Z,14.43
2018-09-14T07:09:12.450Z,13.40
2018-09-14T07:12:37.120Z,12.87
2018-09-14T07:16:01.870Z,14.13
2018-09-14T07:19:26.681Z,12.63
2018-09-14T07:22:52.544Z,11.27
2018-09-14T07:26:17.386Z,9.13
2018-09-14T07:29:42.128Z,12.97
2018-09-14T07:33:06.972Z,13.17
2018-09-14T07:36:31.772Z,13.03
2018-09-14T07:39:56.500Z,12.73
2018-09-14T07:43:21.253Z,11.77
2018-09-14T07:46:46.004Z,11.03
2018-09-14T07:50:10.702Z,12.10
2018-09-14T07:53:35.519Z,12.87
2018-09-14T07:57:00.147Z,12.40
2018-09-14T08:00:24.846Z,14.93
2018-09-14T08:03:49.604Z,14.40
2018-09-14T08:07:14.414Z,14.70
2018-09-14T08:10:39.253Z,14.30
2018-09-14T08:14:04.149Z,14.43
2018-09-14T08:17:29.978Z,14.43
2018-09-14T08:20:54.795Z,14.50
2018-09-14T08:24:19.478Z,13.60
2018-09-14T08:27:44.234Z,11.30
2018-09-14T08:31:08.988Z,12.80
2018-09-14T08:34:33.883Z,11.77
2018-09-14T08:37:58.508Z,12.07
2018-09-14T08:41:23.248Z,12.73
2018-09-14T08:44:47.906Z,13.30
2018-09-14T08:48:12.620Z,11.17
2018-09-14T08:51:37.345Z,11.10
2018-09-14T08:55:02.016Z,8.60
2018-09-14T08:58:26.657Z,10.10
2018-09-14T09:01:51.346Z,11.37
2018-09-14T09:05:16.014Z,8.47
2018-09-14T09:08:40.678Z,9.87
2018-09-14T09:12:05.414Z,10.40
2018-09-14T09:15:30.178Z,9.00
2018-09-14T09:18:54.879Z,8.23
2018-09-14T09:22:19.649Z,6.53
2018-09-14T09:25:44.370Z,8.10
2018-09-14T09:29:09.049Z,7.33
2018-09-14T09:32:33.846Z,8.17
2018-09-14T09:35:58.507Z,8.67
2018-09-14T09:39:23.276Z,8.80
2018-09-14T09:42:47.998Z,9.23
2018-09-14T09:46:12.799Z,10.90
2018-09-14T09:49:37.604Z,8.23
2018-09-14T09:53:02.430Z,8.70
2018-09-14T09:57:51.610Z,8.97
2018-09-14T10:01:21.661Z,10.77
2018-09-14T10:05:53.087Z,10.93
2018-09-14T10:09:17.756Z,9.97
2018-09-14T10:12:42.417Z,9.80
2018-09-14T10:16:07.150Z,9.63
2018-09-14T10:19:31.814Z,8.60
2018-09-14T10:22:56.472Z,8.13
2018-09-14T10:26:21.277Z,7.47
2018-09-14T10:29:46.001Z,8.70
2018-09-14T10:33:10.757Z,8.07
2018-09-14T10:36:35.503Z,6.63
2018-09-14T10:40:00.175Z,7.63
2018-09-14T10:43:24.884Z,7.77
2018-09-14T10:46:49.589Z,7.53
2018-09-14T10:50:14.519Z,5.87
2018-09-14T10:53:39.295Z,6.47
2018-09-14T10:57:04.359Z,6.77
2018-09-14T11:00:28.983Z,6.50
2018-09-14T11:03:53.741Z,5.27
2018-09-14T11:07:18.450Z,6.80
2018-09-14T11:10:43.713Z,7.27
2018-09-14T11:14:08.716Z,5.57
2018-09-14T11:17:33.339Z,4.80
2018-09-14T11:20:57.976Z,6.67
2018-09-14T11:24:22.762Z,6.23
2018-09-14T11:27:48.168Z,5.83
2018-09-14T11:31:12.820Z,6.87
2018-09-14T11:34:37.477Z,5.27
2018-09-14T11:38:02.309Z,5.53
2018-09-14T11:41:27.090Z,5.37
2018-09-14T11:44:53.132Z,4.73
2018-09-14T11:48:18.023Z,4.37
2018-09-14T11:57:38.688Z,4.10
2018-09-14T12:01:05.790Z,4.27
2018-09-14T12:04:30.534Z,3.47
2018-09-14T12:07:55.394Z,4.53
2018-09-14T12:11:20.124Z,5.23
2018-09-14T12:14:44.830Z,4.00
2018-09-14T12:18:09.448Z,4.07
2018-09-14T12:21:34.150Z,3.40
2018-09-14T12:24:58.822Z,4.80
2018-09-14T12:28:23.554Z,3.67
2018-09-14T12:31:48.480Z,4.07
2018-09-14T12:35:13.120Z,4.20
2018-09-14T12:38:37.780Z,4.90
2018-09-14T12:42:02.418Z,4.37
2018-09-14T12:45:27.119Z,3.67
2018-09-14T12:48:51.979Z,3.90
2018-09-14T12:52:16.665Z,3.37
2018-09-14T12:55:41.312Z,4.20
2018-09-14T12:59:05.972Z,4.90
2018-09-14T13:02:30.668Z,3.90
2018-09-14T13:05:56.083Z,4.53
2018-09-14T13:09:21.965Z,4.20
2018-09-14T13:12:46.680Z,4.17
2018-09-14T13:16:11.330Z,4.00
2018-09-14T13:19:35.986Z,3.90
2018-09-14T13:23:00.665Z,4.83
2018-09-14T13:26:25.406Z,4.27
2018-09-14T13:29:50.147Z,4.07
2018-09-14T13:33:14.789Z,5.27
2018-09-14T13:36:39.466Z,3.53
2018-09-14T13:40:04.205Z,4.67
2018-09-14T13:43:28.890Z,4.57
2018-09-14T13:46:53.470Z,4.73
2018-09-14T13:50:18.148Z,4.37
2018-09-14T13:53:43.839Z,4.30
2018-09-14T13:57:08.450Z,4.60
2018-09-14T14:00:33.125Z,5.17
2018-09-14T14:03:57.796Z,4.93
2018-09-14T14:07:23.567Z,3.53
2018-09-14T14:10:48.770Z,3.97
2018-09-14T14:14:13.836Z,4.10
2018-09-14T14:17:39.405Z,3.90
2018-09-14T14:21:05.590Z,4.30
2018-09-14T14:24:30.434Z,4.70
2018-09-14T14:27:55.214Z,4.77
2018-09-14T14:31:19.989Z,5.17
2018-09-14T14:34:44.653Z,4.60
2018-09-14T14:38:09.343Z,4.50
2018-09-14T14:41:34.037Z,4.33
2018-09-14T14:44:58.764Z,4.57
2018-09-14T14:48:23.562Z,4.27
2018-09-14T14:51:48.294Z,4.13
2018-09-14T14:55:14.250Z,5.27
2018-09-14T14:58:38.897Z,4.80
2018-09-14T15:02:03.523Z,3.90
2018-09-14T15:05:28.286Z,3.87
2018-09-14T15:08:53.113Z,4.57
2018-09-14T15:12:18.864Z,4.40
2018-09-14T15:15:43.557Z,4.27
2018-09-14T15:19:08.314Z,4.33
2018-09-14T15:22:32.938Z,4.60
2018-09-14T15:25:57.628Z,4.20
2018-09-14T15:29:22.294Z,4.33
2018-09-14T15:32:46.954Z,4.33
2018-09-14T15:36:11.655Z,4.40
2018-09-14T15:39:36.372Z,3.97
2018-09-14T15:43:02.106Z,4.40
2018-09-14T15:46:26.865Z,4.47
2018-09-14T15:49:51.496Z,4.30
2018-09-14T15:53:16.213Z,3.83
2018-09-14T15:56:40.923Z,4.70
2018-09-14T16:00:06.604Z,4.27
2018-09-14T16:03:31.304Z,3.97
2018-09-14T16:06:56.012Z,4.00
2018-09-14T16:10:20.734Z,4.20
2018-09-14T16:13:45.346Z,4.60
2018-09-14T16:17:10.174Z,4.30
2018-09-14T16:21:59.233Z,4.60
2018-09-14T16:25:24.140Z,4.87
2018-09-14T16:28:48.840Z,4.53
2018-09-14T16:32:13.518Z,5.57
2018-09-14T16:35:38.170Z,5.13
2018-09-14T16:39:02.925Z,5.10
2018-09-14T16:42:27.662Z,5.10
2018-09-14T16:45:52.330Z,5.63
2018-09-14T16:49:25.324Z,5.30
2018-09-14T16:52:50.011Z,5.80
2018-09-14T16:56:14.746Z,6.03
2018-09-14T16:59:39.565Z,5.80
2018-09-14T17:03:04.274Z,6.37
2018-09-14T17:06:28.980Z,5.43
2018-09-14T17:09:54.624Z,5.70
2018-09-14T17:13:19.320Z,5.90
2018-09-14T17:16:44.087Z,6.47
2018-09-14T17:20:08.875Z,6.87
2018-09-14T17:23:33.604Z,6.10
2018-09-14T17:26:58.379Z,5.60
2018-09-14T17:30:23.198Z,5.80
2018-09-14T17:33:47.907Z,6.27
2018-09-14T17:37:12.645Z,6.43
2018-09-14T17:40:37.411Z,6.57
2018-09-14T17:44:03.325Z,5.63
2018-09-14T17:47:28.017Z,6.30
2018-09-14T17:50:52.845Z,6.33
2018-09-14T17:54:17.592Z,6.87
2018-09-14T17:57:42.533Z,7.27
2018-09-14T18:01:07.601Z,7.53
2018-09-14T18:08:08.019Z,7.30
2018-09-14T18:11:32.880Z,6.37
2018-09-14T18:14:57.859Z,7.23
2018-09-14T18:18:22.576Z,7.67
2018-09-14T18:21:47.317Z,7.27
2018-09-14T18:25:12.012Z,6.40
2018-09-14T18:28:36.846Z,7.67
2018-09-14T18:32:02.811Z,7.83
2018-09-14T18:35:27.795Z,7.33
2018-09-14T18:38:53.179Z,7.77
2018-09-14T18:42:18.115Z,6.80
2018-09-14T18:45:42.803Z,7.40
2018-09-14T18:49:08.278Z,7.90
2018-09-14T18:52:33.086Z,7.27
2018-09-14T18:55:57.811Z,7.93
2018-09-14T18:59:22.710Z,8.03
2018-09-14T19:02:47.475Z,7.57
2018-09-14T19:06:13.755Z,7.50
2018-09-14T19:09:38.426Z,7.40
2018-09-14T19:13:03.255Z,7.23
2018-09-14T19:16:28.065Z,8.27
2018-09-14T19:19:52.963Z,8.17
2018-09-14T19:23:17.640Z,7.33
2018-09-14T19:26:42.471Z,7.50
2018-09-14T19:30:07.199Z,7.73
2018-09-14T19:33:31.974Z,7.50
2018-09-14T19:36:56.712Z,6.97
2018-09-14T19:40:21.432Z,7.63
2018-09-14T19:43:46.138Z,7.53
2018-09-14T19:47:10.953Z,6.57
2018-09-14T19:50:35.668Z,6.77
2018-09-14T19:54:00.369Z,7.20
2018-09-14T19:57:25.104Z,6.70
2018-09-14T20:00:50.110Z,7.00
2018-09-14T20:04:14.810Z,7.33
2018-09-14T20:07:39.482Z,7.43
2018-09-14T20:11:04.218Z,7.07
2018-09-14T20:14:28.986Z,7.50
2018-09-14T20:17:53.752Z,8.17
2018-09-14T20:21:18.384Z,7.27
2018-09-14T20:24:43.192Z,7.57
2018-09-14T20:28:07.894Z,7.27
2018-09-14T20:31:32.619Z,7.37
2018-09-14T20:34:57.358Z,8.00
2018-09-14T20:38:22.055Z,7.73
2018-09-14T20:41:47.004Z,8.23
2018-09-14T20:45:11.714Z,8.47
2018-09-14T20:48:36.570Z,7.40
2018-09-14T20:52:03.002Z,7.90
2018-09-14T20:55:29.387Z,8.37
2018-09-14T20:58:55.830Z,8.23
2018-09-14T21:02:22.167Z,7.87
2018-09-14T21:05:48.297Z,8.30
2018-09-14T21:09:13.865Z,8.73
2018-09-14T21:12:38.977Z,8.10
2018-09-14T21:16:04.197Z,8.37
2018-09-14T21:19:29.318Z,7.90
2018-09-14T21:22:54.430Z,8.53
2018-09-14T21:26:19.892Z,8.40
2018-09-14T21:29:45.145Z,8.63
2018-09-14T21:33:10.314Z,8.50
2018-09-14T21:36:36.920Z,8.73
2018-09-14T21:40:02.236Z,9.30
2018-09-14T21:43:27.476Z,8.40
2018-09-14T21:46:52.721Z,8.93
2018-09-14T21:50:18.185Z,8.67
2018-09-14T21:53:43.713Z,8.60
2018-09-14T21:57:09.428Z,9.23
2018-09-14T22:00:39.834Z,8.83
2018-09-14T22:04:04.991Z,8.97
2018-09-14T22:07:30.536Z,9.50
2018-09-14T22:10:56.045Z,9.17
2018-09-14T22:14:21.260Z,8.37
2018-09-14T22:17:47.032Z,8.73
2018-09-14T22:21:12.693Z,9.30
2018-09-14T22:24:37.650Z,10.27
2018-09-14T22:28:02.339Z,9.00
2018-09-14T22:31:27.071Z,9.20
2018-09-14T22:34:51.758Z,8.60
2018-09-14T22:38:16.477Z,10.73
2018-09-14T22:41:41.296Z,10.43
2018-09-14T22:45:06.310Z,10.90
2018-09-14T22:48:30.942Z,9.03
2018-09-14T22:51:55.745Z,11.40
2018-09-14T22:55:20.430Z,11.73
2018-09-14T22:58:45.065Z,13.07
2018-09-14T23:02:09.814Z,12.50
2018-09-14T23:05:34.471Z,12.17
2018-09-14T23:08:59.108Z,12.23
2018-09-14T23:12:23.740Z,13.63
2018-09-14T23:15:59.973Z,13.17
2018-09-14T23:19:24.620Z,13.87
2018-09-14T23:22:49.363Z,13.63
2018-09-14T23:26:17.610Z,13.73
2018-09-14T23:29:42.299Z,12.97
2018-09-14T23:33:06.942Z,12.23
2018-09-14T23:36:31.626Z,12.53
2018-09-14T23:39:56.270Z,13.73
2018-09-14T23:43:20.944Z,12.83
2018-09-14T23:46:46.626Z,14.57
2018-09-14T23:50:11.263Z,13.87
2018-09-14T23:53:35.903Z,13.90
2018-09-14T23:57:00.566Z,14.40
